TAF Text Data
IDs:
Format:
Raw Decoded Include METAR

Data at: 2136 UTC 01 Oct 2022

VYYY 012130Z 14004KT 6000 BKN014 FEW018CB OVC100 26/25 Q1005

TAF VYYY 011700Z 0118/0218 23004KT 7000 SCT018 FEW020CB BKN100
  TEMPO 0118/0124 17005KT 4000 RA BKN016 FEW018CB BKN090